Sebastian Elcano, Argentina
Current Conditions -  °F | °C
As of 5:00 AM on Sunday 23 Nov 2014 (Local Time) from SACO Reporting Station
Clear Clear  
Wind Chill: 59°   Ceiling: Unl
Heat Index: 59°   Visibility: 6mi
Dew Point: 54°   Wind: 8mph
Humidity: 82%   Direction: 340°NNW
Pressure: 29.91"   Gusts: NA
Location:  30.15°S, 63.58°W
Report Text: SACO 230800Z 34007KT CAVOK 15/12 Q1013
Loading
Personal Weather Stations






























Interactive Weather Map New forecast layout! Learn more

10-Day Weather Forecast

Advertisements
Track Severe Weather on mobile